logo tempoitalia

Diretta Meteo Papa, Ungherialunedì 31 agosto ore 06:45

Mappa
Sereno 16 °C Sereno 24 Ore: T.min 16 T.max 31
Ponente Nord Km/h 3.7 Punto di rugiada: 14 °C Umidità: 87% Visibilità: 10 Km
Il sole sorge alle: 06:07 Il sole tramonta alle: 19:32
31 Agosto 2026 06:45 tempo osservato: Sereno Sereno 16 87 1015 vento: Nord N 3.7
31 Agosto 2026 06:15 tempo osservato: Sereno Sereno 16 82 1015 vento: Nord N 1.8
31 Agosto 2026 05:45 tempo osservato: Sereno Sereno 16 82 1015 vento: Nord N 3.7
31 Agosto 2026 05:15 tempo osservato: Sereno Sereno 16 82 1015 vento: Nord N 3.7
31 Agosto 2026 04:45 tempo osservato: Sereno Sereno 16 82 1015 vento: Nord N 1.8
31 Agosto 2026 04:15 tempo osservato: Sereno Sereno 17 77 1015 vento: Nord N 1.8
31 Agosto 2026 03:15 tempo osservato: Sereno Sereno 17 77 1015 vento: Nord N 3.7
31 Agosto 2026 02:15 tempo osservato: Sereno Sereno 18 72 1015 vento: Nord N 5.5
31 Agosto 2026 01:45 tempo osservato: Sereno Sereno 18 77 1015 vento: Nord N 5.5
31 Agosto 2026 01:15 tempo osservato: Sereno Sereno 18 77 1015 vento: Nord N 3.7
31 Agosto 2026 00:45 tempo osservato: Sereno Sereno 19 72 1015 vento: Nord N 0
31 Agosto 2026 00:15 tempo osservato: Sereno Sereno 19 72 1016 vento: Nord N 5.5
30 Agosto 2026 23:45 tempo osservato: Sereno Sereno 20 68 1016 vento: Nord N 3.7
30 Agosto 2026 23:15 tempo osservato: Sereno Sereno 20 68 1016 vento: Nord N 5.5
30 Agosto 2026 22:45 tempo osservato: Sereno Sereno 21 64 1015 vento: Nord N 3.7
30 Agosto 2026 22:15 tempo osservato: Sereno Sereno 21 64 1015 vento: Nord N 5.5
30 Agosto 2026 21:45 tempo osservato: Sereno Sereno 22 60 1015 vento: Nord S/SE 7.4
30 Agosto 2026 21:15 tempo osservato: Sereno Sereno 22 60 1015 vento: Nord N 5.5
30 Agosto 2026 20:45 tempo osservato: Sereno Sereno 25 50 1015 vento: Nord S/SE 7.4
30 Agosto 2026 20:15 tempo osservato: Sereno Sereno 25 50 1015 vento: Nord S/SE 7.4
30 Agosto 2026 19:45 tempo osservato: Sereno Sereno 26 50 1015 vento: Nord N 3.7
30 Agosto 2026 19:15 tempo osservato: Sereno Sereno 29 37 1014 vento: Nord N 5.5
30 Agosto 2026 18:45 tempo osservato: Sereno Sereno 31 31 1014 vento: Nord N 1.8
30 Agosto 2026 18:15 tempo osservato: Sereno Sereno 31 29 1014 vento: Nord N 1.8
30 Agosto 2026 17:45 tempo osservato: Sereno Sereno 31 31 1015 vento: Nord N 5.5
30 Agosto 2026 17:15 tempo osservato: Sereno Sereno 31 29 1015 vento: Nord N 9.3
30 Agosto 2026 16:45 tempo osservato: Sereno Sereno 31 29 1015 vento: Nord SO 11.1
30 Agosto 2026 16:15 tempo osservato: Sereno Sereno 31 29 1015 vento: Nord N 11.1
30 Agosto 2026 15:45 tempo osservato: Sereno Sereno 31 31 1015 vento: Nord O/SO 11.1
30 Agosto 2026 15:15 tempo osservato: Sereno Sereno 31 29 1015 vento: Nord N 5.5
30 Agosto 2026 14:45 tempo osservato: Sereno Sereno 31 29 1016 vento: Nord N 7.4
30 Agosto 2026 14:15 tempo osservato: Sereno Sereno 31 29 1016 vento: Nord O 9.3
30 Agosto 2026 13:45 tempo osservato: Sereno Sereno 30 30 1016 vento: Nord N 9.3
30 Agosto 2026 13:15 tempo osservato: Sereno Sereno 30 30 1016 vento: Nord N 7.4
30 Agosto 2026 12:45 tempo osservato: Sereno Sereno 29 32 1017 vento: Nord N 11.1
30 Agosto 2026 12:15 tempo osservato: Sereno Sereno 29 32 1017 vento: Nord N 9.3
30 Agosto 2026 11:45 tempo osservato: Sereno Sereno 29 32 1017 vento: Nord S 9.3
30 Agosto 2026 11:15 tempo osservato: Sereno Sereno 28 34 1017 vento: Nord N 5.5
30 Agosto 2026 10:45 tempo osservato: Sereno Sereno 28 34 1017 vento: Nord S/SO 9.3
30 Agosto 2026 10:15 tempo osservato: Sereno Sereno 27 36 1017 vento: Nord N 5.5
30 Agosto 2026 09:45 tempo osservato: Sereno Sereno 26 39 1017 vento: Nord S/SO 7.4
30 Agosto 2026 09:15 tempo osservato: Sereno Sereno 25 44 1017 vento: Nord N 3.7
30 Agosto 2026 08:45 tempo osservato: Sereno Sereno 23 49 1017 vento: Nord N 1.8
30 Agosto 2026 08:15 tempo osservato: Sereno Sereno 21 56 1017 vento: Nord N 1.8
30 Agosto 2026 07:45 tempo osservato: Sereno Sereno 18 72 1017 vento: Nord N 0